Terminal Aerodrome Forecast
Issued by NWS Charleston, WV

Current Version | Previous Version | Graphics & Text | Print | Product List | Glossary On
Versions: 1 2 3 4 5 6 7 8 9 10 11 12 13 14 15 16 17 18 19 20 21 22 23 24
484
FTUS41 KRLX 120537
TAFEKN
TAF
KEKN 120537Z 1206/1306 17005KT P6SM BKN100
     FM121000 23009KT P6SM BKN045
     FM121200 25011G18KT 3SM -SHSN OVC012
     FM121500 27014G24KT 2SM -SHSN BLSN BKN008 OVC012
     FM130300 29013G27KT 3SM -SHSN OVC025=

USA.gov is the U.S. government's official web portal to all federal, state and local government web resources and services.